Aeroporto :
LOGIN :

Iscrizione | Disclaimer

   EN    FR    IT 

 










Sommario :    VFR   VFR Marginale   IFR   IFR Intensivo   IFR Molto Intensivo
Visibilità : 
Base nubi : 
>= 8 km
>= 3000ft
5 / 8 km
1000 / 3000 ft
1500m / 5 km
500 / 1000 ft
800 / 1500m
200 / 500 ft
< 800m
< 200 ft
Simboli :   Temporali  Nebbia  Neve Forte  Precipitazioni Forti  Vento > 20 kt
SIGMETs :   Varie  Temporali  Ghiacco  Turbolenza  Onda orograficha  Ceneri Vulcaniche






- Altitudine del aeroporto : 788 ft
- Codice IATA : DCM


LFCK - Castres-Mazamet

ULTIMO METAR :
  • 180630Z AUTO 12023KT CAVOK 23/17 Q1014 BECMG 12025G35KT

METARs OBSOLETI :
  • 180600Z AUTO 12023KT CAVOK 23/17 Q1014
  • 180530Z AUTO 12024KT CAVOK 22/17 Q1013
  • 180500Z AUTO 12021KT CAVOK 22/17 Q1014
  • 180430Z AUTO 13017KT 090V150 CAVOK 22/17 Q1014
  • 180400Z AUTO 13018KT CAVOK 22/16 Q1013

TAF TAF LFCK
Valido dal 18 a 06 ore il 18 a 15 ore UTC


180500Z 1806/1815 12025G35KT CAVOK



MetMap, La meteo Aeronautica in un colpo d'occhio ! - Copyright ORBIFLY Dicembre 2007 - Disclaimer

ORBIFLY MET'MAP TEAM :

Programmazione e sviluppo : Alexandra Zaïnal
Concezione : Baudouin d'Aumeries
Aiuto per la programmazione : Marc-Olivier Méhu
Supporto tecnico e logistico : Manuel Goepfert
Aiuto per la traduzione : Arnaldo La Scala

Contatto : metmap@orbifly.com




FONTI E CREDITI :

   NOAA